createdAt,value
2018-12-27T00:01:58.664Z,96.37
2018-12-27T00:04:27.984Z,80.70
2018-12-27T00:06:58.563Z,96.03
2018-12-27T00:09:28.669Z,86.80
2018-12-27T00:11:58.265Z,88.83
2018-12-27T00:14:29.960Z,109.93
2018-12-27T00:17:00.973Z,97.27
2018-12-27T00:19:30.412Z,99.00
2018-12-27T00:22:00.185Z,87.37
2018-12-27T00:24:30.157Z,98.77
2018-12-27T00:26:59.723Z,108.10
2018-12-27T00:29:29.265Z,100.27
2018-12-27T00:31:59.226Z,91.07
2018-12-27T00:34:29.285Z,89.37
2018-12-27T00:36:59.034Z,99.50
2018-12-27T00:39:28.761Z,81.40
2018-12-27T00:42:02.759Z,83.23
2018-12-27T00:44:32.759Z,90.30
2018-12-27T00:47:02.756Z,81.90
2018-12-27T00:49:32.627Z,81.03
2018-12-27T00:52:16.244Z,93.13
2018-12-27T00:54:46.099Z,96.10
2018-12-27T00:57:16.169Z,87.30
2018-12-27T00:59:48.274Z,87.00
2018-12-27T01:02:18.223Z,98.80
2018-12-27T01:04:47.897Z,89.67
2018-12-27T01:07:24.271Z,102.70
2018-12-27T01:09:53.957Z,88.43
2018-12-27T01:12:26.801Z,96.33
2018-12-27T01:15:10.977Z,92.73
2018-12-27T01:17:42.458Z,96.47
2018-12-27T01:20:12.290Z,96.37
2018-12-27T01:22:45.095Z,89.03
2018-12-27T01:25:14.854Z,99.60
2018-12-27T01:27:44.484Z,98.63
2018-12-27T01:30:14.461Z,94.20
2018-12-27T01:32:44.427Z,105.83
2018-12-27T01:35:14.359Z,110.90
2018-12-27T01:37:44.443Z,94.47
2018-12-27T01:40:17.676Z,100.40
2018-12-27T01:42:47.535Z,103.93
2018-12-27T01:45:20.962Z,98.40
2018-12-27T01:47:50.865Z,93.90
2018-12-27T01:50:23.918Z,91.90
2018-12-27T01:52:54.175Z,105.03
2018-12-27T01:55:26.461Z,90.00
2018-12-27T01:57:56.534Z,89.17
2018-12-27T02:00:27.191Z,96.43
2018-12-27T02:02:57.112Z,89.87
2018-12-27T02:05:26.962Z,92.73
2018-12-27T02:07:57.287Z,84.23
2018-12-27T02:10:33.910Z,95.70
2018-12-27T02:13:03.734Z,96.57
2018-12-27T02:15:33.637Z,94.87
2018-12-27T02:18:08.298Z,96.30
2018-12-27T02:20:37.910Z,88.97
2018-12-27T02:23:07.758Z,96.80
2018-12-27T02:25:37.625Z,94.93
2018-12-27T02:28:07.733Z,98.50
2018-12-27T02:30:43.611Z,88.20
2018-12-27T02:33:08.845Z,87.43
2018-12-27T02:35:38.575Z,89.30
2018-12-27T02:38:10.300Z,83.60
2018-12-27T02:40:40.243Z,102.63
2018-12-27T02:43:10.283Z,92.27
2018-12-27T02:45:40.066Z,93.40
2018-12-27T02:48:09.868Z,102.47
2018-12-27T02:50:40.027Z,95.63
2018-12-27T02:53:12.773Z,104.50
2018-12-27T02:55:42.539Z,89.20
2018-12-27T02:58:18.572Z,94.57
2018-12-27T03:00:44.009Z,100.33
2018-12-27T03:03:13.844Z,99.37
2018-12-27T03:05:43.947Z,98.43
2018-12-27T03:08:13.946Z,107.90
2018-12-27T03:10:43.580Z,97.17
2018-12-27T03:13:22.276Z,95.93
2018-12-27T03:15:52.040Z,110.00
2018-12-27T03:18:25.005Z,112.73
2018-12-27T03:20:54.952Z,106.33
2018-12-27T03:23:25.087Z,107.13
2018-12-27T03:25:54.862Z,102.30
2018-12-27T03:28:24.986Z,110.47
2018-12-27T03:30:54.669Z,109.13
2018-12-27T03:33:24.411Z,120.83
2018-12-27T03:35:54.200Z,134.90
2018-12-27T03:38:24.072Z,133.30
2018-12-27T03:40:54.045Z,156.10
2018-12-27T03:43:27.244Z,144.27
2018-12-27T03:45:57.217Z,152.47
2018-12-27T03:48:27.134Z,158.60
2018-12-27T03:50:57.147Z,152.30
2018-12-27T03:53:32.875Z,127.57
2018-12-27T03:55:58.368Z,133.53
2018-12-27T04:01:13.080Z,127.87
2018-12-27T04:03:40.829Z,117.13
2018-12-27T04:06:22.253Z,129.97
2018-12-27T04:08:52.222Z,129.70
2018-12-27T04:11:22.219Z,123.23
2018-12-27T04:14:03.862Z,124.40
2018-12-27T04:16:30.920Z,134.37
2018-12-27T04:19:00.534Z,139.30
2018-12-27T04:21:30.203Z,131.27
2018-12-27T04:24:00.184Z,136.83
2018-12-27T04:26:29.947Z,147.83
2018-12-27T04:28:59.612Z,141.97
2018-12-27T04:31:29.976Z,146.83
2018-12-27T04:34:09.226Z,138.30
2018-12-27T04:36:31.443Z,143.50
2018-12-27T04:39:00.893Z,141.33
2018-12-27T04:41:31.129Z,157.40
2018-12-27T04:44:04.808Z,134.57
2018-12-27T04:46:34.443Z,139.37
2018-12-27T04:49:04.236Z,136.50
2018-12-27T04:51:37.091Z,146.07
2018-12-27T04:54:13.578Z,133.83
2018-12-27T04:56:46.217Z,141.60
2018-12-27T04:59:15.804Z,122.30
2018-12-27T05:01:48.885Z,135.10
2018-12-27T05:04:18.824Z,140.07
2018-12-27T05:06:51.713Z,135.80
2018-12-27T05:09:21.283Z,136.97
2018-12-27T05:11:51.216Z,139.13
2018-12-27T05:14:20.765Z,137.43
2018-12-27T05:16:52.095Z,151.57
2018-12-27T05:19:21.937Z,135.70
2018-12-27T05:21:51.752Z,129.73
2018-12-27T05:24:24.250Z,129.00
2018-12-27T05:26:54.229Z,227.53
2018-12-27T05:29:23.913Z,275.57
2018-12-27T05:31:53.590Z,111.90
2018-12-27T05:34:26.309Z,121.20
2018-12-27T05:36:55.035Z,111.17
2018-12-27T05:39:25.969Z,112.77
2018-12-27T05:41:55.639Z,117.23
2018-12-27T05:44:25.019Z,118.97
2018-12-27T05:46:54.743Z,109.73
2018-12-27T05:49:24.102Z,122.10
2018-12-27T05:52:01.016Z,107.00
2018-12-27T05:54:30.331Z,122.40
2018-12-27T05:56:59.613Z,111.63
2018-12-27T05:59:36.729Z,137.97
2018-12-27T06:02:08.945Z,143.07
2018-12-27T06:04:38.242Z,159.03
2018-12-27T06:07:07.943Z,167.40
2018-12-27T06:09:37.563Z,158.53
2018-12-27T06:12:11.603Z,148.73
2018-12-27T06:14:37.936Z,163.33
2018-12-27T06:17:08.012Z,181.90
2018-12-27T06:19:37.271Z,170.13
2018-12-27T06:22:09.410Z,168.93
2018-12-27T06:24:46.155Z,167.00
2018-12-27T06:27:15.507Z,171.20
2018-12-27T06:29:44.840Z,159.43
2018-12-27T06:32:17.634Z,179.00
2018-12-27T06:34:46.993Z,159.73
2018-12-27T06:37:16.284Z,171.80
2018-12-27T06:39:45.645Z,170.47
2018-12-27T06:42:15.458Z,161.20
2018-12-27T06:44:44.767Z,148.20
2018-12-27T06:47:14.057Z,172.83
2018-12-27T06:49:43.410Z,164.07
2018-12-27T06:52:12.769Z,174.87
2018-12-27T06:54:42.069Z,159.23
2018-12-27T06:57:18.677Z,157.33
2018-12-27T06:59:47.971Z,145.17
2018-12-27T07:02:17.294Z,156.27
2018-12-27T07:04:48.977Z,150.40
2018-12-27T07:07:18.456Z,135.10
2018-12-27T07:09:50.723Z,128.40
2018-12-27T07:12:20.373Z,136.57
2018-12-27T07:14:49.669Z,131.27
2018-12-27T07:17:18.973Z,152.07
2018-12-27T07:19:48.465Z,142.40
2018-12-27T07:22:20.912Z,140.33
2018-12-27T07:24:50.198Z,136.57
2018-12-27T07:27:20.086Z,142.57
2018-12-27T07:29:49.367Z,145.53
2018-12-27T07:32:18.700Z,123.90
2018-12-27T07:34:47.994Z,122.80
2018-12-27T07:37:17.318Z,136.07
2018-12-27T07:39:46.893Z,130.00
2018-12-27T07:42:16.228Z,139.43
2018-12-27T07:44:45.544Z,126.97
2018-12-27T07:47:21.078Z,132.17
2018-12-27T07:49:50.425Z,122.00
2018-12-27T07:52:19.743Z,124.17
2018-12-27T07:54:56.855Z,140.70
2018-12-27T07:57:26.194Z,129.40
2018-12-27T07:59:55.526Z,121.67
2018-12-27T08:02:24.876Z,128.43
2018-12-27T08:04:54.250Z,121.43
2018-12-27T08:07:23.561Z,128.37
2018-12-27T08:09:53.219Z,122.20
2018-12-27T08:12:28.298Z,120.83
2018-12-27T08:14:57.577Z,111.00
2018-12-27T08:17:27.184Z,119.40
2018-12-27T08:19:56.589Z,102.43
2018-12-27T08:22:25.853Z,107.53
2018-12-27T08:24:55.491Z,109.33
2018-12-27T08:27:24.863Z,121.60
2018-12-27T08:29:54.137Z,105.77
2018-12-27T08:32:23.859Z,111.03
2018-12-27T08:34:53.422Z,115.90
2018-12-27T08:37:22.759Z,107.00
2018-12-27T08:39:52.388Z,117.97
2018-12-27T08:42:21.752Z,123.37
2018-12-27T08:44:54.108Z,98.43
2018-12-27T08:47:23.758Z,105.70
2018-12-27T08:49:56.355Z,98.90
2018-12-27T08:52:25.719Z,102.53
2018-12-27T08:54:55.312Z,106.80
2018-12-27T08:59:59.522Z,110.57
2018-12-27T09:02:28.801Z,118.57
2018-12-27T09:04:58.072Z,159.23
2018-12-27T09:07:27.804Z,154.27
2018-12-27T09:09:57.157Z,174.17
2018-12-27T09:12:26.541Z,159.40
2018-12-27T09:14:56.548Z,144.60
2018-12-27T09:17:32.945Z,145.47
2018-12-27T09:20:03.453Z,166.47
2018-12-27T09:22:33.191Z,162.93
2018-12-27T09:25:02.564Z,189.33
2018-12-27T09:27:31.985Z,173.90
2018-12-27T09:30:07.523Z,165.77
2018-12-27T09:32:39.855Z,153.80
2018-12-27T09:35:09.161Z,166.97
2018-12-27T09:37:38.453Z,174.03
2018-12-27T09:40:07.851Z,186.30
2018-12-27T09:42:37.455Z,142.60
2018-12-27T09:45:09.770Z,167.03
2018-12-27T09:47:39.074Z,141.93
2018-12-27T09:50:08.668Z,175.80
2018-12-27T09:52:38.032Z,153.03
2018-12-27T09:55:07.365Z,147.03
2018-12-27T09:57:36.952Z,156.13
2018-12-27T10:00:06.407Z,145.27
2018-12-27T10:02:35.705Z,157.90
2018-12-27T10:05:05.474Z,159.00
2018-12-27T10:07:34.747Z,142.63
2018-12-27T10:10:07.529Z,152.10
2018-12-27T10:12:36.807Z,155.07
2018-12-27T10:15:09.201Z,159.57
2018-12-27T10:17:39.911Z,160.50
2018-12-27T10:20:15.489Z,159.07
2018-12-27T10:22:44.874Z,157.40
2018-12-27T10:25:14.194Z,174.97
2018-12-27T10:27:43.578Z,153.43
2018-12-27T10:30:13.231Z,152.50
2018-12-27T10:32:42.571Z,150.33
2018-12-27T10:35:11.933Z,160.30
2018-12-27T10:37:41.547Z,158.37
2018-12-27T10:40:12.449Z,153.40
2018-12-27T10:42:44.718Z,168.07
2018-12-27T10:45:14.307Z,169.80
2018-12-27T10:47:43.621Z,146.67
2018-12-27T10:50:13.010Z,164.33
2018-12-27T10:52:45.477Z,154.50
2018-12-27T10:55:14.794Z,149.57
2018-12-27T10:57:51.636Z,153.37
2018-12-27T11:00:21.266Z,151.30
2018-12-27T11:02:50.725Z,145.57
2018-12-27T11:05:20.116Z,128.77
2018-12-27T11:07:51.028Z,117.47
2018-12-27T11:10:20.370Z,105.47
2018-12-27T11:12:49.861Z,114.20
2018-12-27T11:15:20.249Z,106.00
2018-12-27T11:17:49.613Z,110.23
2018-12-27T11:20:19.166Z,104.97
2018-12-27T11:22:48.785Z,100.77
2018-12-27T11:25:18.114Z,115.60
2018-12-27T11:27:47.401Z,108.37
2018-12-27T11:30:17.018Z,90.43
2018-12-27T11:32:46.375Z,102.90
2018-12-27T11:35:15.654Z,94.37
2018-12-27T11:37:45.257Z,111.87
2018-12-27T11:40:14.651Z,106.23
2018-12-27T11:42:43.950Z,92.10
2018-12-27T11:45:19.295Z,111.40
2018-12-27T11:47:48.687Z,99.07
2018-12-27T11:50:18.097Z,102.97
2018-12-27T11:52:47.467Z,100.43
2018-12-27T11:55:16.797Z,106.73
2018-12-27T11:57:46.403Z,93.17
2018-12-27T12:00:15.684Z,94.53
2018-12-27T12:02:45.041Z,89.57
2018-12-27T12:05:20.461Z,84.43
2018-12-27T12:07:49.857Z,93.27
2018-12-27T12:10:19.212Z,90.20
2018-12-27T12:12:48.825Z,89.53
2018-12-27T12:15:18.185Z,89.83
2018-12-27T12:17:52.672Z,93.20
2018-12-27T12:20:22.000Z,95.60
2018-12-27T12:22:57.418Z,83.63
2018-12-27T12:25:27.247Z,153.73
2018-12-27T12:27:56.548Z,100.03
2018-12-27T12:30:25.865Z,103.93
2018-12-27T12:32:55.554Z,96.57
2018-12-27T12:35:24.916Z,86.03
2018-12-27T12:37:54.209Z,89.90
2018-12-27T12:40:26.704Z,91.47
2018-12-27T12:42:56.117Z,91.20
2018-12-27T12:45:25.549Z,92.70
2018-12-27T12:47:55.168Z,85.53
2018-12-27T12:50:30.466Z,81.30
2018-12-27T12:52:59.866Z,78.80
2018-12-27T12:55:29.590Z,97.47
2018-12-27T12:58:08.163Z,92.70
2018-12-27T13:00:37.852Z,85.30
2018-12-27T13:03:07.610Z,84.90
2018-12-27T13:05:40.216Z,89.20
2018-12-27T13:08:09.708Z,78.73
2018-12-27T13:10:47.231Z,74.63
2018-12-27T13:13:16.828Z,83.27
2018-12-27T13:16:48.970Z,78.70
2018-12-27T13:19:18.974Z,83.90
2018-12-27T13:21:49.112Z,87.10
2018-12-27T13:24:19.006Z,88.20
2018-12-27T13:26:48.855Z,78.00
2018-12-27T13:29:19.055Z,102.00
2018-12-27T13:31:48.422Z,82.30
2018-12-27T13:34:24.205Z,81.20
2018-12-27T13:36:57.065Z,86.43
2018-12-27T13:39:26.514Z,80.20
2018-12-27T13:42:07.854Z,79.67
2018-12-27T13:44:28.210Z,74.50
2018-12-27T13:46:57.712Z,73.60
2018-12-27T13:49:27.490Z,74.97
2018-12-27T13:51:56.827Z,76.20
2018-12-27T13:54:26.762Z,71.57
2018-12-27T13:56:57.728Z,67.07
2018-12-27T13:59:27.311Z,61.77
2018-12-27T14:01:56.836Z,75.23
2018-12-27T14:04:35.388Z,68.37
2018-12-27T14:07:04.841Z,74.03
2018-12-27T14:09:34.315Z,78.17
2018-12-27T14:12:05.004Z,75.63
2018-12-27T14:14:34.311Z,76.47
2018-12-27T14:17:03.748Z,62.00
2018-12-27T14:19:33.482Z,59.67
2018-12-27T14:22:05.829Z,91.30
2018-12-27T14:24:35.366Z,74.97
2018-12-27T14:27:05.201Z,82.20
2018-12-27T14:29:34.566Z,64.23
2018-12-27T14:32:07.062Z,62.90
2018-12-27T14:34:37.310Z,65.50
2018-12-27T14:37:06.804Z,61.83
2018-12-27T14:39:36.223Z,57.07
2018-12-27T14:42:09.126Z,60.50
2018-12-27T14:44:41.760Z,65.70
2018-12-27T14:47:11.208Z,61.10
2018-12-27T14:49:41.510Z,51.13
2018-12-27T14:52:11.817Z,54.87
2018-12-27T14:54:41.380Z,51.03
2018-12-27T14:57:11.094Z,52.60
2018-12-27T14:59:40.424Z,60.13
2018-12-27T15:02:09.821Z,53.20
2018-12-27T15:04:39.458Z,47.33
2018-12-27T15:07:09.023Z,59.53
2018-12-27T15:09:38.637Z,60.00
2018-12-27T15:12:08.642Z,63.77
2018-12-27T15:14:38.221Z,67.00
2018-12-27T15:17:13.702Z,60.43
2018-12-27T15:19:43.516Z,72.57
2018-12-27T15:22:16.210Z,56.47
2018-12-27T15:24:45.882Z,71.37
2018-12-27T15:27:15.790Z,77.57
2018-12-27T15:29:45.269Z,86.30
2018-12-27T15:32:16.085Z,66.17
2018-12-27T15:34:45.801Z,68.53
2018-12-27T15:37:15.400Z,71.73
2018-12-27T15:39:45.054Z,72.87
2018-12-27T15:42:15.062Z,77.33
2018-12-27T15:44:44.697Z,63.40
2018-12-27T15:47:14.359Z,71.43
2018-12-27T15:49:44.123Z,74.97
2018-12-27T15:52:13.532Z,72.27
2018-12-27T15:54:43.054Z,74.83
2018-12-27T15:57:13.114Z,71.30
2018-12-27T15:59:42.728Z,60.87
2018-12-27T16:02:13.950Z,74.53
2018-12-27T16:04:51.310Z,76.83
2018-12-27T16:07:21.221Z,69.40
2018-12-27T16:09:51.124Z,63.57
2018-12-27T16:12:20.916Z,69.60
2018-12-27T16:14:50.354Z,76.50
2018-12-27T16:17:30.499Z,75.37
2018-12-27T16:19:59.876Z,74.67
2018-12-27T16:22:29.237Z,69.67
2018-12-27T16:58:32.931Z,81.80
2018-12-27T17:01:02.960Z,81.33
2018-12-27T17:03:32.686Z,88.50
2018-12-27T17:06:10.087Z,94.20
2018-12-27T17:08:35.152Z,85.80
2018-12-27T17:11:04.944Z,78.70
2018-12-27T17:13:34.458Z,75.03
2018-12-27T17:16:05.505Z,76.50
2018-12-27T17:18:34.973Z,71.43
2018-12-27T17:21:04.933Z,74.83
2018-12-27T17:23:34.568Z,77.83
2018-12-27T17:26:08.123Z,72.40
2018-12-27T17:28:37.535Z,77.57
2018-12-27T17:31:07.735Z,73.80
2018-12-27T17:33:43.645Z,78.20
2018-12-27T17:36:13.338Z,81.17
2018-12-27T17:38:43.358Z,89.10
2018-12-27T17:41:21.321Z,92.10
2018-12-27T17:43:51.282Z,81.60
2018-12-27T17:46:21.357Z,80.80
2018-12-27T17:48:51.028Z,81.77
2018-12-27T17:51:23.600Z,77.97
2018-12-27T17:53:53.196Z,193.67
2018-12-27T17:56:31.972Z,124.53
2018-12-27T17:59:01.733Z,83.57
2018-12-27T18:01:37.099Z,94.80
2018-12-27T18:04:11.171Z,91.17
2018-12-27T18:06:40.880Z,99.17
2018-12-27T18:09:13.584Z,98.33
2018-12-27T18:11:45.783Z,93.17
2018-12-27T18:14:23.055Z,90.87
2018-12-27T18:16:53.897Z,96.67
2018-12-27T18:19:23.815Z,92.03
2018-12-27T18:22:00.771Z,107.27
2018-12-27T18:24:30.488Z,105.33
2018-12-27T18:27:08.831Z,105.10
2018-12-27T18:29:38.734Z,105.90
2018-12-27T18:32:08.930Z,108.27
2018-12-27T18:34:39.130Z,111.43
2018-12-27T18:37:08.841Z,100.47
2018-12-27T18:39:41.745Z,99.13
2018-12-27T18:42:11.925Z,97.13
2018-12-27T18:44:41.747Z,99.03
2018-12-27T18:47:11.494Z,113.63
2018-12-27T18:49:41.731Z,111.50
2018-12-27T18:52:11.502Z,119.33
2018-12-27T18:54:44.287Z,124.40
2018-12-27T18:57:14.587Z,118.80
2018-12-27T18:59:44.421Z,115.97
2018-12-27T19:02:14.202Z,129.30
2018-12-27T19:04:44.511Z,119.33
2018-12-27T19:07:14.251Z,99.47
2018-12-27T19:09:44.009Z,108.97
2018-12-27T19:12:49.342Z,120.97
2018-12-27T19:15:22.329Z,104.87
2018-12-27T19:18:04.116Z,113.27
2018-12-27T19:20:34.756Z,127.40
2018-12-27T19:23:25.871Z,122.17
2018-12-27T19:25:46.375Z,123.53
2018-12-27T19:28:18.080Z,134.03
2018-12-27T19:30:48.062Z,117.63
2018-12-27T19:33:17.844Z,115.00
2018-12-27T19:35:47.600Z,121.53
2018-12-27T19:38:17.798Z,114.37
2018-12-27T19:40:47.663Z,115.00
2018-12-27T19:43:17.549Z,102.83
2018-12-27T19:45:47.771Z,106.03
2018-12-27T19:48:17.522Z,113.77
2018-12-27T19:50:47.356Z,110.83
2018-12-27T19:53:17.489Z,98.37
2018-12-27T19:55:47.339Z,95.80
2018-12-27T19:58:17.078Z,109.87
2018-12-27T20:00:46.908Z,102.00
2018-12-27T20:03:16.819Z,111.70
2018-12-27T20:05:47.062Z,105.03
2018-12-27T20:08:37.996Z,105.10
2018-12-27T20:11:10.956Z,108.03
2018-12-27T20:13:40.945Z,120.87
2018-12-27T20:16:10.975Z,114.83
2018-12-27T20:18:42.740Z,102.13
2018-12-27T20:21:12.589Z,109.87
2018-12-27T20:23:42.327Z,101.17
2018-12-27T20:26:12.458Z,87.03
2018-12-27T20:28:42.457Z,99.70
2018-12-27T20:31:12.434Z,96.23
2018-12-27T20:33:42.651Z,98.17
2018-12-27T20:36:14.116Z,99.87
2018-12-27T20:38:46.621Z,96.07
2018-12-27T20:41:17.722Z,100.43
2018-12-27T20:43:47.533Z,101.50
2018-12-27T20:46:17.381Z,106.77
2018-12-27T20:48:47.424Z,100.47
2018-12-27T20:51:28.780Z,104.27
2018-12-27T20:53:58.855Z,107.30
2018-12-27T20:56:31.293Z,88.80
2018-12-27T20:59:01.135Z,88.73
2018-12-27T21:01:30.940Z,84.93
2018-12-27T21:04:03.359Z,82.83
2018-12-27T21:06:33.744Z,94.70
2018-12-27T21:09:05.350Z,94.83
2018-12-27T21:11:37.058Z,92.70
2018-12-27T21:14:16.158Z,89.53
2018-12-27T21:16:49.494Z,103.67
2018-12-27T21:19:19.451Z,118.17
2018-12-27T21:21:50.476Z,104.23
2018-12-27T21:26:50.855Z,101.20
2018-12-27T21:29:20.771Z,102.93
2018-12-27T21:31:50.812Z,97.27
2018-12-27T21:34:20.633Z,93.60
2018-12-27T21:36:50.422Z,102.37
2018-12-27T21:39:20.513Z,95.63
2018-12-27T21:41:50.285Z,89.97
2018-12-27T21:44:23.050Z,91.47
2018-12-27T21:46:53.967Z,103.80
2018-12-27T21:49:23.721Z,89.40
2018-12-27T21:51:56.603Z,88.73
2018-12-27T21:54:26.591Z,101.90
2018-12-27T21:56:56.362Z,95.00
2018-12-27T21:59:26.372Z,107.07
2018-12-27T22:01:56.291Z,108.33
2018-12-27T22:04:26.127Z,92.67
2018-12-27T22:06:56.370Z,114.37
2018-12-27T22:09:26.280Z,92.63
2018-12-27T22:11:58.995Z,90.60
2018-12-27T22:14:32.270Z,94.10
2018-12-27T22:17:02.236Z,76.50
2018-12-27T22:19:38.245Z,83.27
2018-12-27T22:22:11.305Z,92.97
2018-12-27T22:24:41.643Z,81.37
2018-12-27T22:27:11.612Z,81.27
2018-12-27T22:29:41.884Z,76.10
2018-12-27T22:32:15.116Z,76.97
2018-12-27T22:34:48.841Z,74.77
2018-12-27T22:37:19.393Z,74.83
2018-12-27T22:39:58.109Z,80.73
2018-12-27T22:42:28.180Z,70.17
2018-12-27T22:44:57.813Z,73.00
2018-12-27T22:47:27.424Z,80.47
2018-12-27T22:49:57.250Z,76.50
2018-12-27T22:52:26.812Z,73.10
2018-12-27T22:54:56.448Z,82.27
2018-12-27T22:57:30.176Z,79.67
2018-12-27T22:59:59.922Z,75.23
2018-12-27T23:02:34.970Z,74.47
2018-12-27T23:05:07.718Z,69.17
2018-12-27T23:07:37.400Z,82.23
2018-12-27T23:10:07.510Z,89.30
2018-12-27T23:12:37.279Z,78.87
2018-12-27T23:15:07.175Z,76.83
2018-12-27T23:17:39.443Z,86.47
2018-12-27T23:20:09.371Z,68.83
2018-12-27T23:22:38.910Z,73.77
2018-12-27T23:25:09.043Z,75.67
2018-12-27T23:27:41.619Z,80.17
2018-12-27T23:30:11.186Z,83.60
2018-12-27T23:32:42.443Z,81.73
2018-12-27T23:35:12.569Z,77.57
2018-12-27T23:37:45.663Z,79.17
2018-12-27T23:40:15.281Z,82.17
2018-12-27T23:42:44.585Z,89.47
2018-12-27T23:45:14.037Z,83.60
2018-12-27T23:47:43.785Z,70.40
2018-12-27T23:50:16.420Z,77.77
2018-12-27T23:52:45.783Z,104.03
2018-12-27T23:55:16.019Z,90.03
2018-12-27T23:57:48.824Z,97.27
